sensor_id;sensor_type;location;lat;lon;timestamp;P1;durP1;ratioP1;P2;durP2;ratioP2
71104;SDS011;58760;48.716;8.962;2022-10-31T00:01:54;10.93;;;4.18;;
71104;SDS011;58760;48.716;8.962;2022-10-31T00:04:19;11.48;;;4.18;;
71104;SDS011;58760;48.716;8.962;2022-10-31T00:06:44;8.05;;;3.58;;
71104;SDS011;58760;48.716;8.962;2022-10-31T00:09:10;11.25;;;4.20;;
71104;SDS011;58760;48.716;8.962;2022-10-31T00:11:36;9.38;;;3.67;;
71104;SDS011;58760;48.716;8.962;2022-10-31T00:14:01;10.88;;;3.70;;
71104;SDS011;58760;48.716;8.962;2022-10-31T00:16:27;11.30;;;3.90;;
71104;SDS011;58760;48.716;8.962;2022-10-31T00:18:54;9.10;;;3.58;;
71104;SDS011;58760;48.716;8.962;2022-10-31T00:21:22;6.80;;;3.15;;
71104;SDS011;58760;48.716;8.962;2022-10-31T00:23:48;10.00;;;3.53;;
71104;SDS011;58760;48.716;8.962;2022-10-31T00:26:13;9.18;;;3.53;;
71104;SDS011;58760;48.716;8.962;2022-10-31T00:28:39;11.48;;;3.58;;
71104;SDS011;58760;48.716;8.962;2022-10-31T00:31:06;10.98;;;4.38;;
71104;SDS011;58760;48.716;8.962;2022-10-31T00:33:36;9.48;;;3.60;;
71104;SDS011;58760;48.716;8.962;2022-10-31T00:36:03;8.82;;;3.53;;
71104;SDS011;58760;48.716;8.962;2022-10-31T00:38:29;12.50;;;3.65;;
71104;SDS011;58760;48.716;8.962;2022-10-31T00:40:55;12.73;;;3.83;;
71104;SDS011;58760;48.716;8.962;2022-10-31T00:43:20;9.30;;;3.47;;
71104;SDS011;58760;48.716;8.962;2022-10-31T00:45:45;9.98;;;3.90;;
71104;SDS011;58760;48.716;8.962;2022-10-31T00:48:11;10.60;;;4.25;;
71104;SDS011;58760;48.716;8.962;2022-10-31T00:50:36;11.15;;;3.95;;
71104;SDS011;58760;48.716;8.962;2022-10-31T00:53:03;9.23;;;3.95;;
71104;SDS011;58760;48.716;8.962;2022-10-31T00:55:28;8.48;;;3.60;;
71104;SDS011;58760;48.716;8.962;2022-10-31T00:57:54;8.13;;;3.85;;
71104;SDS011;58760;48.716;8.962;2022-10-31T01:00:19;8.95;;;3.30;;
71104;SDS011;58760;48.716;8.962;2022-10-31T01:02:45;9.80;;;3.42;;
71104;SDS011;58760;48.716;8.962;2022-10-31T01:05:10;10.60;;;4.07;;
71104;SDS011;58760;48.716;8.962;2022-10-31T01:07:37;10.23;;;3.30;;
71104;SDS011;58760;48.716;8.962;2022-10-31T01:10:04;11.45;;;4.20;;
71104;SDS011;58760;48.716;8.962;2022-10-31T01:12:35;8.15;;;3.58;;
71104;SDS011;58760;48.716;8.962;2022-10-31T01:15:04;11.40;;;3.67;;
71104;SDS011;58760;48.716;8.962;2022-10-31T01:17:31;8.55;;;3.22;;
71104;SDS011;58760;48.716;8.962;2022-10-31T01:19:56;9.45;;;3.13;;
71104;SDS011;58760;48.716;8.962;2022-10-31T01:22:21;7.88;;;3.67;;
71104;SDS011;58760;48.716;8.962;2022-10-31T01:24:47;11.30;;;3.72;;
71104;SDS011;58760;48.716;8.962;2022-10-31T01:27:12;7.82;;;3.45;;
71104;SDS011;58760;48.716;8.962;2022-10-31T01:29:38;10.18;;;3.60;;
71104;SDS011;58760;48.716;8.962;2022-10-31T01:32:03;8.30;;;3.03;;
71104;SDS011;58760;48.716;8.962;2022-10-31T01:34:29;9.27;;;3.53;;
71104;SDS011;58760;48.716;8.962;2022-10-31T01:36:54;8.13;;;3.70;;
71104;SDS011;58760;48.716;8.962;2022-10-31T01:39:19;8.48;;;2.90;;
71104;SDS011;58760;48.716;8.962;2022-10-31T01:41:46;9.93;;;2.97;;
71104;SDS011;58760;48.716;8.962;2022-10-31T01:46:40;7.35;;;3.53;;
71104;SDS011;58760;48.716;8.962;2022-10-31T01:51:58;8.77;;;2.97;;
71104;SDS011;58760;48.716;8.962;2022-10-31T01:54:39;9.23;;;2.92;;
71104;SDS011;58760;48.716;8.962;2022-10-31T01:57:10;11.25;;;3.40;;
71104;SDS011;58760;48.716;8.962;2022-10-31T01:59:39;8.38;;;3.03;;
71104;SDS011;58760;48.716;8.962;2022-10-31T02:02:10;7.70;;;3.00;;
71104;SDS011;58760;48.716;8.962;2022-10-31T02:04:36;6.57;;;2.83;;
71104;SDS011;58760;48.716;8.962;2022-10-31T02:07:02;9.38;;;3.10;;
71104;SDS011;58760;48.716;8.962;2022-10-31T02:09:32;7.82;;;3.13;;
71104;SDS011;58760;48.716;8.962;2022-10-31T02:11:59;7.38;;;2.90;;
71104;SDS011;58760;48.716;8.962;2022-10-31T02:14:26;9.38;;;3.22;;
71104;SDS011;58760;48.716;8.962;2022-10-31T02:16:54;6.93;;;2.88;;
71104;SDS011;58760;48.716;8.962;2022-10-31T02:22:10;6.45;;;2.88;;
71104;SDS011;58760;48.716;8.962;2022-10-31T02:36:04;8.90;;;3.15;;
71104;SDS011;58760;48.716;8.962;2022-10-31T02:44:20;10.25;;;3.30;;
71104;SDS011;58760;48.716;8.962;2022-10-31T02:46:57;9.73;;;3.00;;
71104;SDS011;58760;48.716;8.962;2022-10-31T02:52:16;8.50;;;3.63;;
71104;SDS011;58760;48.716;8.962;2022-10-31T02:54:43;6.35;;;2.58;;
71104;SDS011;58760;48.716;8.962;2022-10-31T02:57:11;11.45;;;2.92;;
71104;SDS011;58760;48.716;8.962;2022-10-31T02:59:38;8.35;;;3.08;;
71104;SDS011;58760;48.716;8.962;2022-10-31T03:02:15;9.68;;;2.70;;
71104;SDS011;58760;48.716;8.962;2022-10-31T03:04:51;9.43;;;3.30;;
71104;SDS011;58760;48.716;8.962;2022-10-31T03:10:04;8.27;;;2.78;;
71104;SDS011;58760;48.716;8.962;2022-10-31T03:19:08;7.65;;;3.13;;
71104;SDS011;58760;48.716;8.962;2022-10-31T03:21:40;7.63;;;2.80;;
71104;SDS011;58760;48.716;8.962;2022-10-31T03:24:09;7.82;;;2.47;;
71104;SDS011;58760;48.716;8.962;2022-10-31T03:26:38;6.22;;;2.40;;
71104;SDS011;58760;48.716;8.962;2022-10-31T03:29:09;6.53;;;2.38;;
71104;SDS011;58760;48.716;8.962;2022-10-31T03:31:49;8.07;;;2.90;;
71104;SDS011;58760;48.716;8.962;2022-10-31T03:34:15;9.20;;;2.70;;
71104;SDS011;58760;48.716;8.962;2022-10-31T03:36:43;9.48;;;2.80;;
71104;SDS011;58760;48.716;8.962;2022-10-31T03:39:12;8.30;;;3.65;;
71104;SDS011;58760;48.716;8.962;2022-10-31T03:41:41;10.68;;;2.90;;
71104;SDS011;58760;48.716;8.962;2022-10-31T03:44:13;7.63;;;2.58;;
71104;SDS011;58760;48.716;8.962;2022-10-31T03:46:41;6.72;;;2.40;;
71104;SDS011;58760;48.716;8.962;2022-10-31T03:49:08;6.63;;;2.47;;
71104;SDS011;58760;48.716;8.962;2022-10-31T03:57:06;8.63;;;3.47;;
71104;SDS011;58760;48.716;8.962;2022-10-31T03:59:47;6.72;;;2.70;;
71104;SDS011;58760;48.716;8.962;2022-10-31T04:02:19;9.57;;;2.58;;
71104;SDS011;58760;48.716;8.962;2022-10-31T04:04:48;8.10;;;2.97;;
71104;SDS011;58760;48.716;8.962;2022-10-31T04:07:14;5.70;;;2.53;;
71104;SDS011;58760;48.716;8.962;2022-10-31T04:09:42;9.40;;;2.97;;
71104;SDS011;58760;48.716;8.962;2022-10-31T04:12:12;8.68;;;3.08;;
71104;SDS011;58760;48.716;8.962;2022-10-31T04:14:40;9.80;;;3.00;;
71104;SDS011;58760;48.716;8.962;2022-10-31T04:17:07;6.97;;;2.60;;
71104;SDS011;58760;48.716;8.962;2022-10-31T04:19:36;7.13;;;2.90;;
71104;SDS011;58760;48.716;8.962;2022-10-31T04:22:01;7.28;;;2.70;;
71104;SDS011;58760;48.716;8.962;2022-10-31T04:24:27;7.43;;;2.80;;
71104;SDS011;58760;48.716;8.962;2022-10-31T04:26:52;8.70;;;2.72;;
71104;SDS011;58760;48.716;8.962;2022-10-31T04:29:18;6.57;;;2.72;;
71104;SDS011;58760;48.716;8.962;2022-10-31T04:31:43;6.38;;;2.55;;
71104;SDS011;58760;48.716;8.962;2022-10-31T04:34:08;6.45;;;2.40;;
71104;SDS011;58760;48.716;8.962;2022-10-31T04:36:34;5.90;;;2.63;;
71104;SDS011;58760;48.716;8.962;2022-10-31T04:38:59;8.30;;;2.72;;
71104;SDS011;58760;48.716;8.962;2022-10-31T04:41:24;6.88;;;2.53;;
71104;SDS011;58760;48.716;8.962;2022-10-31T04:43:50;9.57;;;2.83;;
71104;SDS011;58760;48.716;8.962;2022-10-31T04:46:15;5.65;;;2.47;;
71104;SDS011;58760;48.716;8.962;2022-10-31T04:48:40;7.00;;;2.70;;
71104;SDS011;58760;48.716;8.962;2022-10-31T04:51:06;6.50;;;2.38;;
71104;SDS011;58760;48.716;8.962;2022-10-31T04:53:31;8.73;;;2.72;;
71104;SDS011;58760;48.716;8.962;2022-10-31T04:55:59;5.47;;;2.30;;
71104;SDS011;58760;48.716;8.962;2022-10-31T04:58:25;7.70;;;2.63;;
71104;SDS011;58760;48.716;8.962;2022-10-31T05:00:54;8.90;;;2.80;;
71104;SDS011;58760;48.716;8.962;2022-10-31T05:03:20;8.73;;;2.97;;
71104;SDS011;58760;48.716;8.962;2022-10-31T05:05:46;6.63;;;2.70;;
71104;SDS011;58760;48.716;8.962;2022-10-31T05:08:12;8.48;;;2.53;;
71104;SDS011;58760;48.716;8.962;2022-10-31T05:10:38;7.57;;;2.67;;
71104;SDS011;58760;48.716;8.962;2022-10-31T05:13:03;7.45;;;2.60;;
71104;SDS011;58760;48.716;8.962;2022-10-31T05:15:29;6.90;;;2.53;;
71104;SDS011;58760;48.716;8.962;2022-10-31T05:17:55;10.55;;;3.00;;
71104;SDS011;58760;48.716;8.962;2022-10-31T05:20:23;7.75;;;2.70;;
71104;SDS011;58760;48.716;8.962;2022-10-31T05:22:51;6.63;;;2.60;;
71104;SDS011;58760;48.716;8.962;2022-10-31T05:25:18;9.60;;;2.67;;
71104;SDS011;58760;48.716;8.962;2022-10-31T05:27:46;7.97;;;2.75;;
71104;SDS011;58760;48.716;8.962;2022-10-31T05:30:14;7.45;;;2.50;;
71104;SDS011;58760;48.716;8.962;2022-10-31T05:32:41;7.75;;;3.22;;
71104;SDS011;58760;48.716;8.962;2022-10-31T05:35:10;6.80;;;2.80;;
71104;SDS011;58760;48.716;8.962;2022-10-31T05:37:37;7.10;;;2.88;;
71104;SDS011;58760;48.716;8.962;2022-10-31T05:40:03;6.20;;;2.70;;
71104;SDS011;58760;48.716;8.962;2022-10-31T05:42:30;7.00;;;2.70;;
71104;SDS011;58760;48.716;8.962;2022-10-31T05:44:55;7.85;;;2.85;;
71104;SDS011;58760;48.716;8.962;2022-10-31T05:47:21;7.07;;;2.67;;
71104;SDS011;58760;48.716;8.962;2022-10-31T05:49:46;9.00;;;3.35;;
71104;SDS011;58760;48.716;8.962;2022-10-31T05:52:11;8.38;;;2.60;;
71104;SDS011;58760;48.716;8.962;2022-10-31T05:54:37;9.73;;;2.75;;
71104;SDS011;58760;48.716;8.962;2022-10-31T05:57:02;8.60;;;2.80;;
71104;SDS011;58760;48.716;8.962;2022-10-31T05:59:28;8.32;;;2.67;;
71104;SDS011;58760;48.716;8.962;2022-10-31T06:01:53;7.20;;;2.60;;
71104;SDS011;58760;48.716;8.962;2022-10-31T06:04:18;8.68;;;2.85;;
71104;SDS011;58760;48.716;8.962;2022-10-31T06:06:44;9.40;;;2.70;;
71104;SDS011;58760;48.716;8.962;2022-10-31T06:09:09;5.75;;;2.35;;
71104;SDS011;58760;48.716;8.962;2022-10-31T06:11:34;9.68;;;2.60;;
71104;SDS011;58760;48.716;8.962;2022-10-31T06:14:00;10.75;;;2.85;;
71104;SDS011;58760;48.716;8.962;2022-10-31T06:16:25;5.97;;;2.40;;
71104;SDS011;58760;48.716;8.962;2022-10-31T06:18:51;9.57;;;2.45;;
71104;SDS011;58760;48.716;8.962;2022-10-31T06:21:16;8.20;;;2.67;;
71104;SDS011;58760;48.716;8.962;2022-10-31T06:23:41;6.32;;;2.38;;
71104;SDS011;58760;48.716;8.962;2022-10-31T06:26:07;8.73;;;2.60;;
71104;SDS011;58760;48.716;8.962;2022-10-31T06:28:32;6.68;;;2.65;;
71104;SDS011;58760;48.716;8.962;2022-10-31T06:30:57;8.32;;;2.78;;
71104;SDS011;58760;48.716;8.962;2022-10-31T06:33:23;8.18;;;2.50;;
71104;SDS011;58760;48.716;8.962;2022-10-31T06:35:48;7.72;;;3.10;;
71104;SDS011;58760;48.716;8.962;2022-10-31T06:38:14;8.68;;;2.50;;
71104;SDS011;58760;48.716;8.962;2022-10-31T06:40:39;8.50;;;2.75;;
71104;SDS011;58760;48.716;8.962;2022-10-31T06:43:05;8.40;;;2.72;;
71104;SDS011;58760;48.716;8.962;2022-10-31T06:45:30;8.48;;;2.72;;
71104;SDS011;58760;48.716;8.962;2022-10-31T06:47:56;8.43;;;2.65;;
71104;SDS011;58760;48.716;8.962;2022-10-31T06:50:22;7.60;;;2.75;;
71104;SDS011;58760;48.716;8.962;2022-10-31T06:52:55;8.75;;;2.72;;
71104;SDS011;58760;48.716;8.962;2022-10-31T06:57:54;8.02;;;2.70;;
71104;SDS011;58760;48.716;8.962;2022-10-31T07:00:21;7.75;;;2.50;;
71104;SDS011;58760;48.716;8.962;2022-10-31T07:02:54;8.63;;;3.10;;
71104;SDS011;58760;48.716;8.962;2022-10-31T07:05:20;8.95;;;2.70;;
71104;SDS011;58760;48.716;8.962;2022-10-31T07:07:46;8.05;;;3.38;;
71104;SDS011;58760;48.716;8.962;2022-10-31T07:10:12;7.40;;;2.58;;
71104;SDS011;58760;48.716;8.962;2022-10-31T07:12:37;7.35;;;3.10;;
71104;SDS011;58760;48.716;8.962;2022-10-31T07:15:03;6.03;;;2.35;;
71104;SDS011;58760;48.716;8.962;2022-10-31T07:17:28;8.02;;;2.95;;
71104;SDS011;58760;48.716;8.962;2022-10-31T07:19:54;9.98;;;2.67;;
71104;SDS011;58760;48.716;8.962;2022-10-31T07:22:19;10.07;;;2.65;;
71104;SDS011;58760;48.716;8.962;2022-10-31T07:24:44;10.95;;;2.92;;
71104;SDS011;58760;48.716;8.962;2022-10-31T07:27:10;6.72;;;2.83;;
71104;SDS011;58760;48.716;8.962;2022-10-31T07:29:35;7.60;;;2.88;;
71104;SDS011;58760;48.716;8.962;2022-10-31T07:32:00;9.45;;;3.13;;
71104;SDS011;58760;48.716;8.962;2022-10-31T07:34:26;8.25;;;3.42;;
71104;SDS011;58760;48.716;8.962;2022-10-31T07:36:52;11.35;;;2.83;;
71104;SDS011;58760;48.716;8.962;2022-10-31T07:39:17;7.93;;;3.15;;
71104;SDS011;58760;48.716;8.962;2022-10-31T07:41:42;8.82;;;2.90;;
71104;SDS011;58760;48.716;8.962;2022-10-31T07:44:08;9.02;;;2.85;;
71104;SDS011;58760;48.716;8.962;2022-10-31T07:46:33;8.68;;;2.90;;
71104;SDS011;58760;48.716;8.962;2022-10-31T07:48:58;6.68;;;2.72;;
71104;SDS011;58760;48.716;8.962;2022-10-31T07:51:23;10.82;;;3.00;;
71104;SDS011;58760;48.716;8.962;2022-10-31T07:53:49;9.63;;;3.08;;
71104;SDS011;58760;48.716;8.962;2022-10-31T07:56:14;9.27;;;2.78;;
71104;SDS011;58760;48.716;8.962;2022-10-31T07:58:40;8.02;;;3.17;;
71104;SDS011;58760;48.716;8.962;2022-10-31T08:01:05;5.90;;;2.60;;
71104;SDS011;58760;48.716;8.962;2022-10-31T08:03:30;15.07;;;3.08;;
71104;SDS011;58760;48.716;8.962;2022-10-31T08:05:56;7.38;;;2.83;;
71104;SDS011;58760;48.716;8.962;2022-10-31T08:08:21;9.55;;;3.00;;
71104;SDS011;58760;48.716;8.962;2022-10-31T08:10:47;6.80;;;2.85;;
71104;SDS011;58760;48.716;8.962;2022-10-31T08:13:12;10.27;;;3.15;;
71104;SDS011;58760;48.716;8.962;2022-10-31T08:15:39;9.05;;;3.83;;
71104;SDS011;58760;48.716;8.962;2022-10-31T08:18:07;7.28;;;2.60;;
71104;SDS011;58760;48.716;8.962;2022-10-31T08:20:37;6.63;;;2.78;;
71104;SDS011;58760;48.716;8.962;2022-10-31T08:23:03;8.02;;;2.50;;
71104;SDS011;58760;48.716;8.962;2022-10-31T08:25:29;12.75;;;3.42;;
71104;SDS011;58760;48.716;8.962;2022-10-31T08:27:56;12.25;;;3.33;;
71104;SDS011;58760;48.716;8.962;2022-10-31T08:30:23;10.23;;;3.40;;
71104;SDS011;58760;48.716;8.962;2022-10-31T08:32:57;8.05;;;3.10;;
71104;SDS011;58760;48.716;8.962;2022-10-31T08:35:35;12.63;;;3.65;;
71104;SDS011;58760;48.716;8.962;2022-10-31T08:38:00;12.57;;;4.10;;
71104;SDS011;58760;48.716;8.962;2022-10-31T08:40:27;8.82;;;3.50;;
71104;SDS011;58760;48.716;8.962;2022-10-31T08:45:27;8.73;;;3.95;;
71104;SDS011;58760;48.716;8.962;2022-10-31T08:48:00;9.57;;;3.53;;
71104;SDS011;58760;48.716;8.962;2022-10-31T08:52:53;11.00;;;2.92;;
71104;SDS011;58760;48.716;8.962;2022-10-31T08:55:25;8.80;;;2.83;;
71104;SDS011;58760;48.716;8.962;2022-10-31T08:57:54;9.27;;;3.00;;
71104;SDS011;58760;48.716;8.962;2022-10-31T09:00:20;8.02;;;2.72;;
71104;SDS011;58760;48.716;8.962;2022-10-31T09:02:46;8.02;;;3.00;;
71104;SDS011;58760;48.716;8.962;2022-10-31T09:05:11;10.48;;;3.10;;
71104;SDS011;58760;48.716;8.962;2022-10-31T09:07:36;10.18;;;3.35;;
71104;SDS011;58760;48.716;8.962;2022-10-31T09:10:02;8.68;;;2.95;;
71104;SDS011;58760;48.716;8.962;2022-10-31T09:12:27;8.18;;;3.08;;
71104;SDS011;58760;48.716;8.962;2022-10-31T09:14:53;9.90;;;3.42;;
71104;SDS011;58760;48.716;8.962;2022-10-31T09:17:18;9.15;;;3.22;;
71104;SDS011;58760;48.716;8.962;2022-10-31T09:19:43;10.27;;;3.13;;
71104;SDS011;58760;48.716;8.962;2022-10-31T09:22:09;10.15;;;3.13;;
71104;SDS011;58760;48.716;8.962;2022-10-31T09:24:34;12.95;;;3.47;;
71104;SDS011;58760;48.716;8.962;2022-10-31T09:26:59;10.68;;;3.42;;
71104;SDS011;58760;48.716;8.962;2022-10-31T09:29:25;6.75;;;3.15;;
71104;SDS011;58760;48.716;8.962;2022-10-31T09:31:50;8.07;;;3.15;;
71104;SDS011;58760;48.716;8.962;2022-10-31T09:34:15;11.13;;;3.13;;
71104;SDS011;58760;48.716;8.962;2022-10-31T09:36:41;9.52;;;3.00;;
71104;SDS011;58760;48.716;8.962;2022-10-31T09:39:08;8.65;;;3.22;;
71104;SDS011;58760;48.716;8.962;2022-10-31T09:44:10;9.60;;;2.95;;
71104;SDS011;58760;48.716;8.962;2022-10-31T09:46:51;8.35;;;3.15;;
71104;SDS011;58760;48.716;8.962;2022-10-31T09:52:14;11.77;;;2.85;;
71104;SDS011;58760;48.716;8.962;2022-10-31T09:54:44;13.70;;;3.00;;
71104;SDS011;58760;48.716;8.962;2022-10-31T09:57:17;8.80;;;2.63;;
71104;SDS011;58760;48.716;8.962;2022-10-31T09:59:49;12.23;;;3.13;;
71104;SDS011;58760;48.716;8.962;2022-10-31T10:02:25;10.90;;;3.35;;
71104;SDS011;58760;48.716;8.962;2022-10-31T10:11:17;10.77;;;3.08;;
71104;SDS011;58760;48.716;8.962;2022-10-31T10:22:12;10.65;;;3.13;;
71104;SDS011;58760;48.716;8.962;2022-10-31T10:25:02;12.40;;;3.67;;
71104;SDS011;58760;48.716;8.962;2022-10-31T10:30:23;16.15;;;6.38;;
71104;SDS011;58760;48.716;8.962;2022-10-31T10:33:01;17.23;;;6.68;;
71104;SDS011;58760;48.716;8.962;2022-10-31T10:35:31;16.85;;;4.88;;
71104;SDS011;58760;48.716;8.962;2022-10-31T10:38:03;13.05;;;3.38;;
71104;SDS011;58760;48.716;8.962;2022-10-31T10:40:36;13.25;;;2.90;;
71104;SDS011;58760;48.716;8.962;2022-10-31T10:51:07;14.63;;;4.85;;
71104;SDS011;58760;48.716;8.962;2022-10-31T10:54:02;15.68;;;5.38;;
71104;SDS011;58760;48.716;8.962;2022-10-31T10:59:18;18.60;;;7.20;;
71104;SDS011;58760;48.716;8.962;2022-10-31T11:01:45;20.95;;;8.38;;
71104;SDS011;58760;48.716;8.962;2022-10-31T11:04:21;18.83;;;9.15;;
71104;SDS011;58760;48.716;8.962;2022-10-31T11:07:02;20.80;;;11.82;;
71104;SDS011;58760;48.716;8.962;2022-10-31T11:09:32;31.23;;;17.58;;
71104;SDS011;58760;48.716;8.962;2022-10-31T11:11:58;29.88;;;17.27;;
71104;SDS011;58760;48.716;8.962;2022-10-31T11:14:25;39.20;;;19.40;;
71104;SDS011;58760;48.716;8.962;2022-10-31T11:16:54;31.40;;;18.52;;
71104;SDS011;58760;48.716;8.962;2022-10-31T11:19:32;20.63;;;9.52;;
71104;SDS011;58760;48.716;8.962;2022-10-31T11:22:08;15.40;;;6.57;;
71104;SDS011;58760;48.716;8.962;2022-10-31T11:24:40;13.60;;;5.78;;
71104;SDS011;58760;48.716;8.962;2022-10-31T11:27:24;12.10;;;4.93;;
71104;SDS011;58760;48.716;8.962;2022-10-31T11:29:51;11.88;;;4.57;;
71104;SDS011;58760;48.716;8.962;2022-10-31T11:32:17;14.25;;;4.88;;
71104;SDS011;58760;48.716;8.962;2022-10-31T11:34:50;16.80;;;4.97;;
71104;SDS011;58760;48.716;8.962;2022-10-31T11:37:23;11.48;;;4.35;;
71104;SDS011;58760;48.716;8.962;2022-10-31T11:40:34;12.98;;;4.50;;
71104;SDS011;58760;48.716;8.962;2022-10-31T11:42:45;14.73;;;4.10;;
71104;SDS011;58760;48.716;8.962;2022-10-31T11:47:59;14.32;;;5.03;;
71104;SDS011;58760;48.716;8.962;2022-10-31T11:52:54;9.73;;;4.43;;
71104;SDS011;58760;48.716;8.962;2022-10-31T11:57:57;11.55;;;3.20;;
71104;SDS011;58760;48.716;8.962;2022-10-31T12:00:26;11.55;;;3.60;;
71104;SDS011;58760;48.716;8.962;2022-10-31T12:05:49;10.38;;;3.20;;
71104;SDS011;58760;48.716;8.962;2022-10-31T12:08:20;12.48;;;3.33;;
71104;SDS011;58760;48.716;8.962;2022-10-31T12:16:07;12.48;;;3.53;;
71104;SDS011;58760;48.716;8.962;2022-10-31T12:18:48;11.95;;;3.08;;
71104;SDS011;58760;48.716;8.962;2022-10-31T12:38:42;8.50;;;2.90;;
71104;SDS011;58760;48.716;8.962;2022-10-31T12:46:57;11.48;;;3.25;;
71104;SDS011;58760;48.716;8.962;2022-10-31T12:52:48;10.50;;;3.58;;
71104;SDS011;58760;48.716;8.962;2022-10-31T13:00:48;11.60;;;2.67;;
71104;SDS011;58760;48.716;8.962;2022-10-31T13:03:31;11.52;;;3.22;;
71104;SDS011;58760;48.716;8.962;2022-10-31T13:06:05;8.38;;;2.75;;
71104;SDS011;58760;48.716;8.962;2022-10-31T13:08:43;9.60;;;3.05;;
71104;SDS011;58760;48.716;8.962;2022-10-31T13:11:17;11.07;;;3.30;;
71104;SDS011;58760;48.716;8.962;2022-10-31T13:16:29;13.82;;;3.15;;
71104;SDS011;58760;48.716;8.962;2022-10-31T13:19:43;11.13;;;3.10;;
71104;SDS011;58760;48.716;8.962;2022-10-31T13:21:58;8.80;;;3.17;;
71104;SDS011;58760;48.716;8.962;2022-10-31T13:24:33;10.77;;;3.05;;
71104;SDS011;58760;48.716;8.962;2022-10-31T13:27:13;13.15;;;3.42;;
71104;SDS011;58760;48.716;8.962;2022-10-31T13:29:54;11.38;;;3.67;;
71104;SDS011;58760;48.716;8.962;2022-10-31T13:32:22;12.93;;;3.25;;
71104;SDS011;58760;48.716;8.962;2022-10-31T13:34:50;15.43;;;3.55;;
71104;SDS011;58760;48.716;8.962;2022-10-31T13:37:54;9.65;;;2.90;;
71104;SDS011;58760;48.716;8.962;2022-10-31T13:43:19;10.85;;;2.58;;
71104;SDS011;58760;48.716;8.962;2022-10-31T13:45:54;13.10;;;3.08;;
71104;SDS011;58760;48.716;8.962;2022-10-31T13:51:07;14.30;;;3.72;;
71104;SDS011;58760;48.716;8.962;2022-10-31T13:56:44;11.07;;;3.17;;
71104;SDS011;58760;48.716;8.962;2022-10-31T13:59:15;14.93;;;3.75;;
71104;SDS011;58760;48.716;8.962;2022-10-31T14:01:49;14.75;;;2.95;;
71104;SDS011;58760;48.716;8.962;2022-10-31T14:04:18;15.75;;;3.47;;
71104;SDS011;58760;48.716;8.962;2022-10-31T14:09:37;13.52;;;3.33;;
71104;SDS011;58760;48.716;8.962;2022-10-31T14:12:28;13.18;;;3.28;;
71104;SDS011;58760;48.716;8.962;2022-10-31T14:15:03;7.68;;;3.00;;
71104;SDS011;58760;48.716;8.962;2022-10-31T14:17:56;7.63;;;2.97;;
71104;SDS011;58760;48.716;8.962;2022-10-31T14:22:56;8.90;;;2.60;;
71104;SDS011;58760;48.716;8.962;2022-10-31T14:27:49;10.10;;;2.60;;
71104;SDS011;58760;48.716;8.962;2022-10-31T14:30:17;12.15;;;3.28;;
71104;SDS011;58760;48.716;8.962;2022-10-31T14:32:52;10.60;;;2.53;;
71104;SDS011;58760;48.716;8.962;2022-10-31T14:35:20;10.63;;;2.75;;
71104;SDS011;58760;48.716;8.962;2022-10-31T14:43:08;11.30;;;3.15;;
71104;SDS011;58760;48.716;8.962;2022-10-31T14:51:02;12.63;;;2.50;;
71104;SDS011;58760;48.716;8.962;2022-10-31T14:53:54;10.02;;;2.53;;
71104;SDS011;58760;48.716;8.962;2022-10-31T14:56:25;12.20;;;3.50;;
71104;SDS011;58760;48.716;8.962;2022-10-31T14:58:53;9.15;;;2.63;;
71104;SDS011;58760;48.716;8.962;2022-10-31T15:03:52;9.57;;;3.30;;
71104;SDS011;58760;48.716;8.962;2022-10-31T15:06:40;11.38;;;2.90;;
71104;SDS011;58760;48.716;8.962;2022-10-31T15:09:23;12.90;;;3.30;;
71104;SDS011;58760;48.716;8.962;2022-10-31T15:11:50;10.60;;;3.38;;
71104;SDS011;58760;48.716;8.962;2022-10-31T15:14:29;14.05;;;3.17;;
71104;SDS011;58760;48.716;8.962;2022-10-31T15:17:01;9.88;;;2.88;;
71104;SDS011;58760;48.716;8.962;2022-10-31T15:19:28;11.10;;;3.38;;
71104;SDS011;58760;48.716;8.962;2022-10-31T15:21:58;11.05;;;3.70;;
71104;SDS011;58760;48.716;8.962;2022-10-31T15:24:34;10.65;;;3.50;;
71104;SDS011;58760;48.716;8.962;2022-10-31T15:27:01;9.13;;;3.08;;
71104;SDS011;58760;48.716;8.962;2022-10-31T15:29:27;10.27;;;3.10;;
71104;SDS011;58760;48.716;8.962;2022-10-31T15:31:58;9.32;;;3.13;;
71104;SDS011;58760;48.716;8.962;2022-10-31T15:34:44;9.18;;;2.92;;
71104;SDS011;58760;48.716;8.962;2022-10-31T15:37:16;9.13;;;3.15;;
71104;SDS011;58760;48.716;8.962;2022-10-31T15:39:46;8.15;;;2.83;;
71104;SDS011;58760;48.716;8.962;2022-10-31T15:42:21;9.88;;;3.50;;
71104;SDS011;58760;48.716;8.962;2022-10-31T15:44:51;10.05;;;3.25;;
71104;SDS011;58760;48.716;8.962;2022-10-31T15:49:50;6.95;;;2.80;;
71104;SDS011;58760;48.716;8.962;2022-10-31T15:57:49;9.88;;;3.10;;
71104;SDS011;58760;48.716;8.962;2022-10-31T16:03:00;11.77;;;3.78;;
71104;SDS011;58760;48.716;8.962;2022-10-31T16:05:49;13.85;;;3.97;;
71104;SDS011;58760;48.716;8.962;2022-10-31T16:08:23;21.17;;;4.93;;
71104;SDS011;58760;48.716;8.962;2022-10-31T16:10:58;8.68;;;3.13;;
71104;SDS011;58760;48.716;8.962;2022-10-31T16:14:22;10.25;;;3.78;;
71104;SDS011;58760;48.716;8.962;2022-10-31T16:16:52;10.68;;;3.58;;
71104;SDS011;58760;48.716;8.962;2022-10-31T16:20:05;12.60;;;4.03;;
71104;SDS011;58760;48.716;8.962;2022-10-31T16:22:33;12.48;;;4.18;;
71104;SDS011;58760;48.716;8.962;2022-10-31T16:25:13;13.60;;;3.92;;
71104;SDS011;58760;48.716;8.962;2022-10-31T16:27:47;13.10;;;3.95;;
71104;SDS011;58760;48.716;8.962;2022-10-31T16:30:29;11.18;;;4.22;;
71104;SDS011;58760;48.716;8.962;2022-10-31T16:33:04;12.10;;;4.13;;
71104;SDS011;58760;48.716;8.962;2022-10-31T16:35:45;10.27;;;4.03;;
71104;SDS011;58760;48.716;8.962;2022-10-31T16:38:10;9.18;;;3.90;;
71104;SDS011;58760;48.716;8.962;2022-10-31T16:40:37;9.55;;;3.72;;
71104;SDS011;58760;48.716;8.962;2022-10-31T16:43:03;13.10;;;4.60;;
71104;SDS011;58760;48.716;8.962;2022-10-31T16:45:31;14.48;;;4.75;;
71104;SDS011;58760;48.716;8.962;2022-10-31T16:48:02;14.05;;;5.50;;
71104;SDS011;58760;48.716;8.962;2022-10-31T16:50:35;13.15;;;5.07;;
71104;SDS011;58760;48.716;8.962;2022-10-31T16:53:02;9.82;;;4.15;;
71104;SDS011;58760;48.716;8.962;2022-10-31T16:55:27;10.65;;;4.90;;
71104;SDS011;58760;48.716;8.962;2022-10-31T16:57:53;13.27;;;4.78;;
71104;SDS011;58760;48.716;8.962;2022-10-31T17:00:24;15.20;;;4.82;;
71104;SDS011;58760;48.716;8.962;2022-10-31T17:02:52;13.98;;;4.50;;
71104;SDS011;58760;48.716;8.962;2022-10-31T17:05:21;12.73;;;4.60;;
71104;SDS011;58760;48.716;8.962;2022-10-31T17:07:47;15.38;;;4.75;;
71104;SDS011;58760;48.716;8.962;2022-10-31T17:10:13;13.82;;;4.95;;
71104;SDS011;58760;48.716;8.962;2022-10-31T17:12:43;20.48;;;8.23;;
71104;SDS011;58760;48.716;8.962;2022-10-31T17:15:15;22.00;;;8.48;;
71104;SDS011;58760;48.716;8.962;2022-10-31T17:17:43;18.10;;;8.23;;
71104;SDS011;58760;48.716;8.962;2022-10-31T17:20:17;19.08;;;6.88;;
71104;SDS011;58760;48.716;8.962;2022-10-31T17:22:45;17.33;;;7.57;;
71104;SDS011;58760;48.716;8.962;2022-10-31T17:25:12;14.90;;;5.35;;
71104;SDS011;58760;48.716;8.962;2022-10-31T17:27:40;12.07;;;5.30;;
71104;SDS011;58760;48.716;8.962;2022-10-31T17:30:06;14.95;;;4.63;;
71104;SDS011;58760;48.716;8.962;2022-10-31T17:32:31;12.90;;;5.10;;
71104;SDS011;58760;48.716;8.962;2022-10-31T17:34:56;13.93;;;5.55;;
71104;SDS011;58760;48.716;8.962;2022-10-31T17:37:22;15.98;;;8.70;;
71104;SDS011;58760;48.716;8.962;2022-10-31T17:39:47;37.92;;;21.17;;
71104;SDS011;58760;48.716;8.962;2022-10-31T17:42:13;36.63;;;20.05;;
71104;SDS011;58760;48.716;8.962;2022-10-31T17:44:38;29.40;;;15.43;;
71104;SDS011;58760;48.716;8.962;2022-10-31T17:47:03;21.52;;;11.00;;
71104;SDS011;58760;48.716;8.962;2022-10-31T17:49:29;18.23;;;8.60;;